Time;durP1;ratioP1;P1;durP2;ratioP2;P2;SDS_P1;SDS_P2;PMS_P1;PMS_P2;Temp;Humidity;BMP_temperature;BMP_pressure;BME280_temperature;BME280_humidity;BME280_pressure;Samples;Min_cycle;Max_cycle;Signal;HPM_P1;HPM_P2
2022/02/24 00:02:17;;;;;;;12.32;4.15;;;;;;;6.20;50.55;95487.91;4946160;29;20063;-80
2022/02/24 00:04:45;;;;;;;6.50;4.72;;;;;;;6.16;50.95;95496.19;4946312;29;20028;-80
2022/02/24 00:07:11;;;;;;;12.05;5.10;;;;;;;6.14;51.23;95490.41;4943489;28;20075;-80
2022/02/24 00:09:36;;;;;;;16.05;5.10;;;;;;;5.88;52.21;95491.00;4927533;29;20063;-79
2022/02/24 00:12:02;;;;;;;9.63;4.47;;;;;;;5.91;52.66;95501.75;4928920;29;20484;-79
2022/02/24 00:14:28;;;;;;;20.33;5.05;;;;;;;5.95;52.05;95487.50;4913106;29;20039;-79
2022/02/24 00:16:53;;;;;;;18.95;5.03;;;;;;;6.06;52.59;95490.56;4945922;29;20040;-79
2022/02/24 00:19:19;;;;;;;12.45;5.22;;;;;;;6.11;51.78;95488.22;4928705;29;20166;-79
2022/02/24 00:21:44;;;;;;;13.35;4.47;;;;;;;6.17;51.72;95497.78;4945867;29;20039;-80
2022/02/24 00:24:10;;;;;;;11.40;4.90;;;;;;;6.14;51.72;95495.59;4917015;29;20076;-79
2022/02/24 00:26:37;;;;;;;17.23;5.30;;;;;;;6.14;51.17;95498.16;4928580;29;20032;-80
2022/02/24 00:29:03;;;;;;;25.00;8.02;;;;;;;6.06;51.29;95490.56;4929499;28;20510;-80
2022/02/24 00:31:28;;;;;;;25.30;11.23;;;;;;;5.99;51.14;95496.47;4944561;29;20035;-80
2022/02/24 00:33:54;;;;;;;52.45;18.65;;;;;;;5.94;50.93;95478.16;4944419;28;20043;-79
2022/02/24 00:36:19;;;;;;;48.67;15.27;;;;;;;5.86;51.10;95483.44;4929043;29;20039;-79
2022/02/24 00:38:45;;;;;;;31.25;14.40;;;;;;;5.75;51.64;95473.59;4959706;28;20091;-80
2022/02/24 00:41:10;;;;;;;67.95;24.73;;;;;;;5.66;51.53;95485.03;4927187;28;20032;-79
2022/02/24 00:43:36;;;;;;;41.55;22.33;;;;;;;5.53;51.71;95477.97;4927930;29;20492;-79
2022/02/24 00:46:01;;;;;;;59.60;24.42;;;;;;;5.42;52.96;95475.88;4945411;29;20043;-79
2022/02/24 00:48:27;;;;;;;39.20;15.23;;;;;;;5.39;52.12;95479.63;4928138;29;20031;-79
2022/02/24 00:50:52;;;;;;;26.35;14.02;;;;;;;5.32;52.54;95483.91;4945799;29;20586;-79
2022/02/24 00:53:17;;;;;;;46.55;22.02;;;;;;;5.24;52.76;95481.44;4945092;29;20038;-79
2022/02/24 00:55:44;;;;;;;29.88;13.60;;;;;;;5.17;52.77;95482.34;4943347;29;20031;-78
2022/02/24 00:58:09;;;;;;;30.58;11.35;;;;;;;5.06;53.40;95474.09;4943442;28;20046;-79
2022/02/24 01:00:35;;;;;;;9.77;5.40;;;;;;;5.02;53.96;95472.84;4944931;29;20035;-80
2022/02/24 01:03:00;;;;;;;12.60;5.35;;;;;;;4.92;54.00;95476.72;4944556;29;20039;-80
2022/02/24 01:05:26;;;;;;;20.98;4.85;;;;;;;4.85;54.32;95471.47;4928398;29;20071;-80
2022/02/24 01:07:54;;;;;;;13.32;5.25;;;;;;;4.81;53.95;95468.44;4942791;29;20090;-79
2022/02/24 01:10:20;;;;;;;21.00;6.72;;;;;;;4.77;53.85;95474.94;4946475;29;20058;-79
2022/02/24 01:12:45;;;;;;;17.35;7.53;;;;;;;4.74;54.13;95472.72;4946614;28;20414;-79
2022/02/24 01:15:12;;;;;;;21.80;5.65;;;;;;;4.69;54.32;95480.19;4945363;29;20039;-79
2022/02/24 01:17:37;;;;;;;18.75;4.90;;;;;;;4.68;54.79;95476.00;4944633;29;20103;-79
2022/02/24 01:20:04;;;;;;;15.25;5.40;;;;;;;4.60;54.33;95475.31;4933012;29;20548;-79
2022/02/24 01:22:30;;;;;;;10.02;5.60;;;;;;;4.59;55.02;95471.94;4947422;29;20171;-79
2022/02/24 01:24:55;;;;;;;17.00;5.93;;;;;;;4.49;55.29;95479.13;4947506;29;20043;-79
2022/02/24 01:27:21;;;;;;;21.38;5.22;;;;;;;4.52;54.98;95471.03;4947772;28;20031;-79
2022/02/24 01:29:46;;;;;;;16.52;4.88;;;;;;;4.52;55.30;95465.88;4949210;28;20546;-79
2022/02/24 01:32:13;;;;;;;14.90;5.15;;;;;;;4.49;55.27;95466.25;4915553;29;20119;-79
2022/02/24 01:34:39;;;;;;;15.75;7.38;;;;;;;4.46;55.33;95469.19;4947243;28;20052;-78
2022/02/24 01:37:04;;;;;;;23.55;10.35;;;;;;;4.48;55.22;95469.81;4952282;28;20036;-78
2022/02/24 01:39:30;;;;;;;22.17;9.73;;;;;;;4.52;55.85;95473.63;4949020;28;20028;-79
2022/02/24 01:41:55;;;;;;;14.90;6.25;;;;;;;4.56;54.85;95474.88;4950421;28;20043;-79
2022/02/24 01:44:21;;;;;;;17.65;4.82;;;;;;;4.61;55.43;95469.19;4947341;29;20500;-79
2022/02/24 01:46:46;;;;;;;10.77;4.88;;;;;;;4.64;55.25;95474.78;4915339;29;20039;-79
2022/02/24 01:49:12;;;;;;;24.52;7.40;;;;;;;4.60;54.64;95468.38;4945948;28;20075;-79
2022/02/24 01:51:38;;;;;;;17.35;6.97;;;;;;;4.64;54.96;95469.63;4916539;29;20108;-79
2022/02/24 01:54:04;;;;;;;13.93;4.65;;;;;;;4.66;54.78;95457.34;4948967;29;20711;-79
2022/02/24 01:56:30;;;;;;;9.38;4.35;;;;;;;4.63;55.49;95462.88;4930966;29;20032;-79
2022/02/24 01:58:56;;;;;;;26.75;5.47;;;;;;;4.62;55.10;95461.28;4946932;28;20035;-80
2022/02/24 02:01:21;;;;;;;30.00;7.70;;;;;;;4.65;55.14;95463.50;4929745;29;20066;-80
2022/02/24 02:03:49;;;;;;;20.38;8.18;;;;;;;4.63;54.70;95464.66;4930898;29;20534;-80
2022/02/24 02:06:14;;;;;;;27.77;10.80;;;;;;;4.55;55.41;95460.38;4948752;29;20030;-79
2022/02/24 02:08:40;;;;;;;37.00;18.02;;;;;;;4.50;55.08;95457.53;4947384;28;20480;-79
2022/02/24 02:11:05;;;;;;;46.53;18.63;;;;;;;4.40;55.61;95467.31;4946135;29;20042;-79
2022/02/24 02:13:33;;;;;;;23.85;8.93;;;;;;;4.38;55.45;95476.97;4943061;29;20031;-78
2022/02/24 02:15:58;;;;;;;20.60;7.50;;;;;;;4.37;55.42;95472.81;4968824;29;20059;-78
2022/02/24 02:18:24;;;;;;;41.95;11.18;;;;;;;4.36;55.90;95471.22;4971555;28;20036;-78
2022/02/24 02:20:51;;;;;;;41.25;13.43;;;;;;;4.34;55.79;95475.75;4959847;28;20039;-79
2022/02/24 02:23:16;;;;;;;30.40;12.55;;;;;;;4.24;55.90;95477.78;4944466;29;20587;-79
2022/02/24 02:25:42;;;;;;;27.02;9.85;;;;;;;4.19;56.02;95473.94;4929353;29;20035;-79
2022/02/24 02:28:07;;;;;;;39.40;13.25;;;;;;;4.09;56.29;95481.13;4946011;29;20039;-79
2022/02/24 02:30:33;;;;;;;31.40;11.65;;;;;;;4.04;56.39;95475.69;4946587;28;20090;-80
2022/02/24 02:32:58;;;;;;;12.48;6.25;;;;;;;3.97;56.20;95476.59;4949887;28;20045;-80
2022/02/24 02:35:24;;;;;;;18.60;6.10;;;;;;;3.93;56.59;95481.28;4928891;29;20115;-80
2022/02/24 02:37:50;;;;;;;18.92;5.82;;;;;;;3.90;57.29;95476.47;4949013;28;20031;-80
2022/02/24 02:40:16;;;;;;;12.30;5.57;;;;;;;3.82;57.57;95476.53;4930206;29;20043;-79
2022/02/24 02:42:41;;;;;;;31.38;12.93;;;;;;;3.82;57.00;95484.25;4914687;29;20063;-79
2022/02/24 02:45:07;;;;;;;43.88;14.27;;;;;;;3.79;57.14;95484.63;4946502;29;20050;-79
2022/02/24 02:47:33;;;;;;;16.92;6.93;;;;;;;3.78;57.29;95486.38;4948827;29;20051;-79
2022/02/24 02:49:58;;;;;;;17.67;5.60;;;;;;;3.77;57.29;95486.56;4959027;29;20060;-79
2022/02/24 02:52:24;;;;;;;8.38;5.32;;;;;;;3.72;56.98;95486.25;4948851;29;20039;-79
2022/02/24 02:54:51;;;;;;;17.98;7.10;;;;;;;3.67;57.06;95501.41;4947882;29;20298;-79
2022/02/24 02:57:16;;;;;;;11.45;6.47;;;;;;;3.59;57.60;95503.09;4929028;29;20454;-79
2022/02/24 02:59:41;;;;;;;34.55;12.30;;;;;;;3.55;57.72;95504.38;4947039;29;20044;-79
2022/02/24 03:02:07;;;;;;;13.95;8.25;;;;;;;3.51;57.40;95510.03;4929489;29;20043;-79
2022/02/24 03:04:32;;;;;;;17.25;7.50;;;;;;;3.53;57.19;95508.91;4930879;29;20027;-79
2022/02/24 03:06:58;;;;;;;19.08;7.38;;;;;;;3.50;58.09;95516.97;4944500;28;20558;-79
2022/02/24 03:09:23;;;;;;;17.65;7.03;;;;;;;3.49;58.02;95510.22;4945527;29;20042;-79
2022/02/24 03:11:49;;;;;;;10.88;5.57;;;;;;;3.46;57.47;95505.41;4931255;29;20558;-79
2022/02/24 03:14:14;;;;;;;20.83;6.82;;;;;;;3.40;57.62;95506.09;4911286;29;20031;-79
2022/02/24 03:16:40;;;;;;;14.73;6.43;;;;;;;3.34;58.13;95516.25;4928473;29;20051;-78
2022/02/24 03:19:05;;;;;;;13.27;6.35;;;;;;;3.31;58.33;95512.25;4927889;29;20394;-79
2022/02/24 03:21:31;;;;;;;18.75;6.65;;;;;;;3.34;58.24;95504.19;4929647;29;20042;-79
2022/02/24 03:23:56;;;;;;;20.58;5.38;;;;;;;3.32;58.40;95508.72;4944999;29;20046;-79
2022/02/24 03:26:21;;;;;;;13.75;5.20;;;;;;;3.35;58.06;95518.66;4945297;28;20523;-79
2022/02/24 03:28:47;;;;;;;15.70;5.45;;;;;;;3.42;58.01;95523.94;4927898;29;20055;-79
2022/02/24 03:31:12;;;;;;;9.25;5.35;;;;;;;3.42;58.04;95518.78;4928793;29;20036;-79
2022/02/24 03:33:38;;;;;;;13.32;6.22;;;;;;;3.42;58.02;95514.44;4943968;29;20039;-79
2022/02/24 03:36:03;;;;;;;7.68;5.18;;;;;;;3.48;57.79;95511.19;4945253;28;20027;-79
2022/02/24 03:38:29;;;;;;;8.98;5.13;;;;;;;3.46;57.77;95515.69;4930567;29;20086;-78
2022/02/24 03:40:54;;;;;;;11.85;5.85;;;;;;;3.46;58.05;95518.28;4943335;29;20555;-79
2022/02/24 03:43:20;;;;;;;19.98;6.30;;;;;;;3.43;57.97;95521.19;4926863;29;20506;-78
2022/02/24 03:45:45;;;;;;;9.40;5.57;;;;;;;3.42;58.44;95523.94;4946916;29;20420;-79
2022/02/24 03:48:11;;;;;;;22.77;5.82;;;;;;;3.36;57.86;95525.38;4945380;28;20551;-78
2022/02/24 03:50:37;;;;;;;20.63;5.80;;;;;;;3.37;58.28;95527.00;4929368;29;20540;-79
2022/02/24 03:53:02;;;;;;;11.20;5.78;;;;;;;3.47;57.42;95532.72;4929752;29;20035;-79
2022/02/24 03:55:28;;;;;;;11.93;8.13;;;;;;;3.47;57.75;95542.22;4943945;29;20023;-78
2022/02/24 03:57:53;;;;;;;12.65;6.95;;;;;;;3.46;57.94;95538.84;4912036;29;20036;-79
2022/02/24 04:00:20;;;;;;;20.55;6.47;;;;;;;3.50;57.45;95540.09;4943594;28;20028;-78
2022/02/24 04:02:46;;;;;;;19.30;5.25;;;;;;;3.55;56.70;95531.88;4912298;29;20040;-78
2022/02/24 04:05:13;;;;;;;10.20;5.88;;;;;;;3.61;57.12;95534.56;4946425;29;20472;-79
2022/02/24 04:07:38;;;;;;;14.00;5.82;;;;;;;3.71;56.50;95538.66;4946847;29;20455;-79
2022/02/24 04:10:04;;;;;;;10.15;5.63;;;;;;;3.74;56.25;95540.91;4926651;29;20043;-79
2022/02/24 04:12:30;;;;;;;14.23;5.22;;;;;;;3.74;56.32;95533.19;4944426;29;20455;-79
2022/02/24 04:14:55;;;;;;;23.40;5.72;;;;;;;3.80;55.73;95533.31;4944742;28;20047;-80
2022/02/24 04:17:21;;;;;;;14.27;5.57;;;;;;;3.81;55.82;95539.25;4944364;29;20023;-80
2022/02/24 04:19:46;;;;;;;12.43;5.40;;;;;;;3.81;55.59;95534.91;4944397;29;20043;-79
2022/02/24 04:22:11;;;;;;;13.05;5.13;;;;;;;3.84;55.43;95533.75;4944088;28;20038;-78
2022/02/24 04:24:37;;;;;;;13.23;4.70;;;;;;;3.89;55.11;95542.56;4945882;29;20035;-79
2022/02/24 04:27:03;;;;;;;11.77;6.53;;;;;;;3.93;55.09;95540.47;4944450;29;20035;-78
2022/02/24 04:29:28;;;;;;;12.82;5.93;;;;;;;3.97;55.20;95539.13;4926538;29;20042;-78
2022/02/24 04:31:53;;;;;;;13.63;5.63;;;;;;;4.03;54.48;95535.84;4944007;28;20067;-80
2022/02/24 04:34:19;;;;;;;13.32;5.15;;;;;;;4.08;54.73;95541.31;4947651;29;20035;-79
2022/02/24 04:36:44;;;;;;;17.02;5.28;;;;;;;4.16;54.19;95543.81;4946358;29;20040;-79
2022/02/24 04:39:10;;;;;;;15.85;6.32;;;;;;;4.22;53.77;95552.59;4927352;29;20038;-80
2022/02/24 04:41:35;;;;;;;35.42;14.35;;;;;;;4.29;54.33;95555.28;4946061;29;20039;-79
2022/02/24 04:44:01;;;;;;;36.90;16.95;;;;;;;4.31;54.43;95548.19;4944744;28;20047;-80
2022/02/24 04:46:26;;;;;;;32.95;12.40;;;;;;;4.32;55.30;95554.94;4947446;29;20039;-79
2022/02/24 04:48:51;;;;;;;25.95;9.90;;;;;;;4.36;54.16;95556.97;4949431;29;20381;-79
2022/02/24 04:51:17;;;;;;;25.15;8.48;;;;;;;4.35;54.28;95564.88;4948885;29;20055;-80
2022/02/24 04:53:42;;;;;;;28.88;10.23;;;;;;;4.32;54.94;95568.59;4950141;29;20031;-80
2022/02/24 04:56:08;;;;;;;26.48;9.63;;;;;;;4.38;55.04;95573.03;4917907;29;20035;-80
2022/02/24 04:58:33;;;;;;;22.60;11.40;;;;;;;4.37;55.07;95578.38;4953512;28;20038;-78
2022/02/24 05:00:59;;;;;;;22.10;9.52;;;;;;;4.46;54.63;95580.72;4962079;28;20031;-79
2022/02/24 05:05:50;;;;;;;19.13;10.15;;;;;;;4.47;54.26;95592.63;4970630;23;20055;-78
2022/02/24 05:08:15;;;;;;;21.25;7.90;;;;;;;4.39;54.00;95589.28;4964194;29;20061;-79
2022/02/24 05:10:41;;;;;;;25.35;8.05;;;;;;;4.47;53.78;95599.53;4933668;28;20047;-78
2022/02/24 05:13:06;;;;;;;22.75;8.18;;;;;;;4.49;53.26;95595.00;4935051;29;20043;-79
2022/02/24 05:15:32;;;;;;;18.33;8.68;;;;;;;4.44;54.18;95600.69;4928515;29;20083;-79
2022/02/24 05:17:57;;;;;;;24.35;11.35;;;;;;;4.45;54.17;95614.38;4942857;29;20064;-78
2022/02/24 05:20:22;;;;;;;37.08;17.42;;;;;;;4.46;53.71;95616.75;4942397;29;20889;-79
2022/02/24 05:22:48;;;;;;;49.47;21.42;;;;;;;4.48;53.46;95606.28;4927157;29;20405;-78
2022/02/24 05:25:14;;;;;;;33.05;17.17;;;;;;;4.47;53.59;95612.41;4929183;29;20028;-78
2022/02/24 05:27:43;;;;;;;38.28;17.40;;;;;;;4.52;53.73;95617.84;4927040;29;20024;-78
2022/02/24 05:30:10;;;;;;;37.50;15.48;;;;;;;4.55;53.45;95609.75;4926874;29;20110;-78
2022/02/24 05:32:35;;;;;;;49.08;18.42;;;;;;;4.52;53.58;95621.22;4910061;29;20061;-78
2022/02/24 05:35:01;;;;;;;42.97;18.65;;;;;;;4.59;53.82;95610.22;4927855;29;20495;-78
2022/02/24 05:37:27;;;;;;;37.38;18.08;;;;;;;4.62;52.45;95605.53;4924841;29;20472;-78
2022/02/24 05:39:53;;;;;;;28.05;14.32;;;;;;;4.62;52.11;95620.97;4922465;29;20783;-75
2022/02/24 05:42:19;;;;;;;28.23;12.68;;;;;;;4.68;52.44;95622.84;4909363;29;20031;-82
2022/02/24 05:44:44;;;;;;;22.50;9.23;;;;;;;4.71;52.70;95627.63;4927088;29;20031;-79
2022/02/24 05:47:10;;;;;;;12.05;7.22;;;;;;;4.70;52.21;95623.47;4912016;29;20039;-79
2022/02/24 05:49:35;;;;;;;15.65;7.03;;;;;;;4.74;52.40;95631.66;4927818;29;20027;-81
2022/02/24 05:52:00;;;;;;;12.48;6.75;;;;;;;4.77;52.07;95629.53;4911061;29;20459;-80
2022/02/24 05:54:26;;;;;;;24.10;10.20;;;;;;;4.85;51.16;95633.78;4928700;29;20044;-80
2022/02/24 05:56:51;;;;;;;18.73;9.38;;;;;;;4.90;51.35;95641.03;4915971;29;20674;-80
2022/02/24 05:59:17;;;;;;;26.02;9.77;;;;;;;4.97;50.94;95642.69;4913276;29;20032;-80
2022/02/24 06:01:42;;;;;;;23.48;10.77;;;;;;;5.01;50.89;95646.53;4928794;29;20051;-81
2022/02/24 06:04:08;;;;;;;30.45;12.55;;;;;;;5.02;50.80;95647.31;4927461;29;20083;-80
2022/02/24 06:06:33;;;;;;;28.08;13.57;;;;;;;5.03;51.01;95652.28;4912881;29;20042;-81
2022/02/24 06:08:59;;;;;;;23.63;12.95;;;;;;;5.14;50.47;95653.66;4897923;29;20049;-78
2022/02/24 06:11:24;;;;;;;29.55;12.40;;;;;;;5.16;50.42;95651.69;4929597;29;20040;-81
2022/02/24 06:13:50;;;;;;;48.92;23.73;;;;;;;5.23;50.51;95657.75;4941177;29;20036;-82
2022/02/24 06:16:15;;;;;;;77.53;33.67;;;;;;;5.24;50.61;95661.13;4947629;29;20049;-81
2022/02/24 06:18:41;;;;;;;74.45;31.40;;;;;;;5.17;49.79;95653.28;4931238;28;20047;-82
2022/02/24 06:21:06;;;;;;;52.17;21.98;;;;;;;5.17;49.74;95660.22;4922485;29;20092;-83
2022/02/24 06:23:32;;;;;;;42.00;20.40;;;;;;;5.17;50.37;95661.03;4930708;29;20071;-83
2022/02/24 06:25:57;;;;;;;38.10;15.75;;;;;;;5.26;50.27;95666.91;4912344;29;20771;-82
2022/02/24 06:28:23;;;;;;;33.17;15.50;;;;;;;5.31;50.09;95677.47;4933240;29;20028;-82
2022/02/24 06:30:48;;;;;;;47.13;20.98;;;;;;;5.33;50.96;95675.53;4912865;29;20188;-82
2022/02/24 06:33:14;;;;;;;49.13;23.98;;;;;;;5.40;50.21;95679.00;4895231;29;20087;-82
2022/02/24 06:35:39;;;;;;;53.08;25.55;;;;;;;5.46;50.36;95680.06;4932306;29;20508;-82
2022/02/24 06:38:05;;;;;;;45.05;23.90;;;;;;;5.34;50.27;95675.34;4928249;29;20508;-82
2022/02/24 06:40:30;;;;;;;36.10;16.08;;;;;;;5.32;50.04;95676.50;4923559;23;20043;-82
2022/02/24 06:42:57;;;;;;;29.65;13.68;;;;;;;5.33;49.44;95680.69;4963894;28;20058;-81
2022/02/24 06:45:34;;;;;;;31.63;11.23;;;;;;;5.31;49.49;95686.03;4963108;28;20118;-80
2022/02/24 06:48:01;;;;;;;48.83;15.18;;;;;;;5.51;49.46;95685.47;4894680;29;20199;-81
2022/02/24 06:50:27;;;;;;;39.05;15.88;;;;;;;5.83;48.76;95685.09;4930150;29;20039;-80
2022/02/24 06:52:52;;;;;;;35.08;14.05;;;;;;;6.09;48.86;95681.25;4927274;29;20048;-80
2022/02/24 06:55:18;;;;;;;29.67;12.60;;;;;;;6.40;47.92;95689.53;4905524;29;20180;-80
2022/02/24 06:57:46;;;;;;;29.63;12.18;;;;;;;6.84;47.11;95691.13;4897816;29;20052;-80
2022/02/24 07:00:15;;;;;;;20.58;11.07;;;;;;;7.32;45.42;95688.66;4930835;29;20036;-80
2022/02/24 07:02:41;;;;;;;21.70;10.30;;;;;;;7.73;44.37;95692.06;4935274;29;20559;-80
2022/02/24 07:05:07;;;;;;;21.65;10.35;;;;;;;8.17;43.25;95696.03;4916450;29;20127;-82
2022/02/24 07:07:34;;;;;;;11.00;7.00;;;;;;;8.59;41.33;95691.56;4929828;29;20043;-82
2022/02/24 07:10:10;;;;;;;14.98;7.20;;;;;;;8.95;40.48;95694.59;4900577;29;20650;-81
2022/02/24 07:12:36;;;;;;;15.20;7.75;;;;;;;9.33;40.92;95686.19;4926385;29;20047;-81
2022/02/24 07:15:02;;;;;;;14.40;7.32;;;;;;;9.70;39.63;95687.28;4895470;29;20495;-82
2022/02/24 07:17:28;;;;;;;9.35;5.13;;;;;;;10.13;37.72;95679.75;4928765;29;20092;-81
2022/02/24 07:19:54;;;;;;;7.78;4.72;;;;;;;10.58;36.05;95686.72;4963744;28;20039;-81
2022/02/24 07:24:55;;;;;;;10.68;3.83;;;;;;;11.39;34.71;95677.06;5292959;23;20050;-80
2022/02/24 07:27:21;;;;;;;6.47;4.55;;;;;;;11.66;32.78;95680.19;4968164;28;20031;-80
2022/02/24 07:29:46;;;;;;;8.32;4.53;;;;;;;11.78;32.93;95680.25;4969050;28;20038;-81
2022/02/24 07:32:12;;;;;;;11.45;3.53;;;;;;;12.12;32.86;95678.88;4971374;28;20047;-79
2022/02/24 07:34:37;;;;;;;11.95;4.20;;;;;;;12.30;31.48;95686.66;4950937;28;20027;-80
2022/02/24 07:37:03;;;;;;;5.45;3.90;;;;;;;12.42;31.23;95684.13;4950297;28;20608;-80
2022/02/24 07:39:29;;;;;;;15.27;5.00;;;;;;;12.11;31.40;95686.94;4949603;28;20518;-80
2022/02/24 07:41:54;;;;;;;20.05;10.05;;;;;;;11.99;31.86;95685.06;5225000;23;20026;-79
2022/02/24 07:44:20;;;;;;;11.30;4.78;;;;;;;11.99;31.69;95679.03;4971958;28;20055;-81
2022/02/24 07:46:45;;;;;;;12.82;4.80;;;;;;;12.11;32.05;95679.91;4983595;28;20031;-81
2022/02/24 07:49:11;;;;;;;10.25;3.38;;;;;;;12.05;31.82;95682.59;4956253;28;20030;-81
2022/02/24 07:51:36;;;;;;;11.00;3.97;;;;;;;12.02;31.60;95684.59;4978842;28;20035;-81
2022/02/24 07:56:32;;;;;;;5.85;3.08;;;;;;;10.94;31.63;95686.88;4998750;23;20059;-81
2022/02/24 07:58:58;;;;;;;11.05;4.30;;;;;;;10.65;33.50;95677.06;4950492;29;20111;-82
2022/02/24 08:01:23;;;;;;;5.70;3.92;;;;;;;10.62;33.80;95686.09;4945839;28;20038;-79
2022/02/24 08:03:53;;;;;;;11.93;4.50;;;;;;;10.76;33.99;95679.00;4947061;29;20047;-82
2022/02/24 08:06:18;;;;;;;11.05;3.42;;;;;;;10.80;33.72;95680.16;4932648;29;20030;-81
2022/02/24 08:08:46;;;;;;;9.82;4.10;;;;;;;10.72;33.32;95673.41;4950145;28;20078;-81
2022/02/24 08:11:12;;;;;;;5.95;3.35;;;;;;;10.88;33.56;95672.09;4947102;29;20046;-81
2022/02/24 08:13:37;;;;;;;3.83;3.35;;;;;;;11.00;32.64;95669.59;4925666;29;20035;-81
2022/02/24 08:16:03;;;;;;;3.40;3.00;;;;;;;10.99;33.03;95671.41;4945888;28;20039;-81
2022/02/24 08:18:31;;;;;;;6.10;3.08;;;;;;;10.87;32.38;95675.69;4948787;28;20085;-81
2022/02/24 08:20:56;;;;;;;6.30;3.60;;;;;;;10.50;33.20;95679.97;4946841;28;20019;-81
2022/02/24 08:23:22;;;;;;;5.65;3.03;;;;;;;10.00;34.11;95684.19;4945450;28;20111;-81
2022/02/24 08:25:47;;;;;;;11.07;3.78;;;;;;;9.47;35.36;95679.19;4948712;28;20321;-81
2022/02/24 08:28:13;;;;;;;4.25;3.03;;;;;;;9.07;36.09;95678.41;4947095;29;20099;-82
2022/02/24 08:30:38;;;;;;;11.40;4.38;;;;;;;8.86;37.02;95685.41;4915857;29;20035;-81
2022/02/24 08:33:05;;;;;;;6.57;3.67;;;;;;;8.33;37.48;95680.13;4908534;29;20689;-81
2022/02/24 08:35:30;;;;;;;7.90;3.05;;;;;;;7.45;39.37;95680.97;4934476;29;20028;-80
2022/02/24 08:37:56;;;;;;;5.43;3.80;;;;;;;7.54;39.30;95677.25;4921769;29;20043;-81
2022/02/24 08:40:22;;;;;;;6.10;3.05;;;;;;;7.62;39.59;95687.44;4942779;29;20032;-81
2022/02/24 08:42:48;;;;;;;6.07;3.00;;;;;;;7.52;38.75;95689.59;4931468;29;20114;-81
2022/02/24 08:45:14;;;;;;;11.45;2.60;;;;;;;7.26;40.02;95684.25;4915526;29;20575;-81
2022/02/24 08:47:39;;;;;;;4.03;3.03;;;;;;;6.95;40.41;95685.41;4954319;23;20067;-80
2022/02/24 08:50:05;;;;;;;5.72;3.05;;;;;;;7.06;40.79;95682.31;4950328;28;20023;-82
2022/02/24 08:52:31;;;;;;;3.60;2.70;;;;;;;7.28;40.70;95684.84;4948783;29;20039;-80
2022/02/24 08:54:56;;;;;;;11.73;3.25;;;;;;;7.01;41.21;95673.53;4918547;29;20027;-81
2022/02/24 08:57:22;;;;;;;8.23;3.55;;;;;;;6.93;41.28;95689.97;4940883;29;20050;-80
2022/02/24 08:59:48;;;;;;;7.53;3.08;;;;;;;6.82;41.58;95683.53;4932105;29;20039;-79
2022/02/24 09:02:13;;;;;;;3.17;2.45;;;;;;;6.88;41.96;95679.41;4948736;29;20087;-79
2022/02/24 09:04:39;;;;;;;4.05;2.97;;;;;;;6.47;42.67;95692.16;4946625;29;20038;-80
2022/02/24 09:07:04;;;;;;;5.50;2.97;;;;;;;6.45;43.76;95687.19;4923826;29;20027;-82
2022/02/24 09:09:30;;;;;;;6.22;3.13;;;;;;;6.44;43.75;95689.94;4949227;28;20400;-82
2022/02/24 09:11:55;;;;;;;4.07;3.05;;;;;;;6.59;43.59;95688.09;4954359;29;20035;-81
2022/02/24 09:14:21;;;;;;;9.00;2.97;;;;;;;6.72;43.63;95690.03;4948611;29;20030;-81
2022/02/24 09:16:46;;;;;;;7.38;3.88;;;;;;;6.71;43.55;95691.81;4938347;29;20074;-81
2022/02/24 09:19:12;;;;;;;5.45;3.55;;;;;;;6.73;43.73;95700.16;4947825;29;20023;-79
2022/02/24 09:21:38;;;;;;;7.75;3.35;;;;;;;6.92;43.33;95698.72;4927929;29;20666;-78
2022/02/24 09:24:04;;;;;;;9.20;3.22;;;;;;;6.87;43.09;95691.53;4947415;29;20098;-81
2022/02/24 09:26:29;;;;;;;4.70;3.55;;;;;;;7.02;44.05;95691.47;4912719;29;20195;-79
2022/02/24 09:28:55;;;;;;;4.72;3.10;;;;;;;6.75;45.71;95707.72;4940702;29;20035;-79
2022/02/24 09:31:20;;;;;;;9.18;3.35;;;;;;;6.79;45.92;95703.78;4943960;28;20039;-79
2022/02/24 09:33:46;;;;;;;6.97;3.38;;;;;;;6.86;46.83;95707.25;4926974;29;20074;-79
2022/02/24 09:36:12;;;;;;;3.72;2.63;;;;;;;6.62;48.53;95705.81;4925612;29;20028;-80
2022/02/24 09:38:37;;;;;;;2.88;2.67;;;;;;;6.68;48.29;95697.34;4942956;28;20463;-79
2022/02/24 09:41:04;;;;;;;6.85;3.05;;;;;;;6.94;48.34;95707.09;4935594;29;20031;-78
2022/02/24 09:43:33;;;;;;;3.00;2.78;;;;;;;6.57;49.20;95703.81;4944928;28;20034;-78
2022/02/24 09:46:01;;;;;;;3.80;2.42;;;;;;;6.59;49.16;95709.59;4943340;29;20042;-78
2022/02/24 09:48:31;;;;;;;6.47;2.17;;;;;;;6.77;48.93;95703.97;4944194;29;20031;-78
2022/02/24 09:50:57;;;;;;;3.45;2.47;;;;;;;7.01;48.20;95692.44;4915986;29;20035;-79
2022/02/24 09:53:27;;;;;;;3.72;2.35;;;;;;;7.11;47.65;95682.56;4929073;29;20100;-78
2022/02/24 09:55:53;;;;;;;2.72;2.20;;;;;;;7.10;47.59;95680.97;4949601;29;20124;-78
2022/02/24 09:58:18;;;;;;;5.63;2.00;;;;;;;7.22;47.52;95678.66;4945975;29;20027;-78
2022/02/24 10:00:44;;;;;;;5.82;2.88;;;;;;;7.60;46.96;95676.47;4960373;29;20039;-78
2022/02/24 10:03:24;;;;;;;2.70;2.50;;;;;;;7.65;46.23;95681.91;4959699;29;20031;-78
2022/02/24 10:05:50;;;;;;;2.95;2.70;;;;;;;7.67;46.63;95681.69;4958388;29;20063;-77
2022/02/24 10:08:15;;;;;;;4.80;2.83;;;;;;;7.99;45.48;95675.06;4941413;29;20032;-77
2022/02/24 10:10:42;;;;;;;2.53;2.33;;;;;;;8.10;45.59;95674.47;4956259;29;20043;-80
2022/02/24 10:13:12;;;;;;;3.25;2.38;;;;;;;8.23;44.72;95669.34;4937880;29;20096;-79
2022/02/24 10:15:44;;;;;;;2.30;2.13;;;;;;;8.33;44.48;95667.19;4940369;29;20066;-79
2022/02/24 10:18:14;;;;;;;6.40;2.10;;;;;;;8.54;43.57;95658.47;4933920;29;20114;-78
2022/02/24 10:20:42;;;;;;;3.92;2.50;;;;;;;8.63;43.21;95657.28;4916877;29;20090;-78
2022/02/24 10:23:07;;;;;;;4.00;2.60;;;;;;;8.73;43.20;95656.88;4937465;29;20036;-78
2022/02/24 10:25:52;;;;;;;10.52;3.40;;;;;;;8.52;42.54;95655.28;4927269;29;20078;-78
2022/02/24 10:28:50;;;;;;;3.58;2.55;;;;;;;8.31;42.96;95647.66;4935179;29;20034;-78
2022/02/24 10:31:16;;;;;;;4.00;2.47;;;;;;;8.37;43.53;95642.50;4937155;29;20066;-77
2022/02/24 10:33:44;;;;;;;3.83;3.05;;;;;;;8.43;43.14;95639.09;4942283;29;20504;-77
2022/02/24 10:36:14;;;;;;;4.22;3.28;;;;;;;8.52;43.23;95633.75;4925647;29;20037;-77
2022/02/24 10:38:40;;;;;;;2.28;2.17;;;;;;;8.34;43.04;95636.91;4946433;29;20435;-79
2022/02/24 10:41:06;;;;;;;2.35;2.05;;;;;;;8.30;43.69;95630.50;4929657;29;20039;-79
2022/02/24 10:43:34;;;;;;;6.57;2.90;;;;;;;8.52;42.74;95628.56;4953735;29;20349;-79
2022/02/24 10:46:11;;;;;;;2.50;2.30;;;;;;;8.79;42.41;95622.38;4914206;29;20139;-79
2022/02/24 10:48:57;;;;;;;8.45;3.80;;;;;;;8.97;41.80;95622.56;4927551;29;20035;-79
2022/02/24 10:51:26;;;;;;;5.88;3.10;;;;;;;8.81;42.36;95622.19;4958165;28;20106;-79
2022/02/24 10:54:12;;;;;;;7.97;6.03;;;;;;;8.61;42.72;95627.34;4943267;29;20038;-79
2022/02/24 10:56:41;;;;;;;3.47;2.60;;;;;;;8.69;42.68;95619.38;4945063;28;20163;-80
2022/02/24 10:59:07;;;;;;;3.90;3.17;;;;;;;8.61;42.32;95622.16;4934805;29;20039;-79
2022/02/24 11:01:33;;;;;;;2.65;2.45;;;;;;;8.12;43.08;95612.91;4935394;29;20099;-79
2022/02/24 11:04:00;;;;;;;5.32;3.08;;;;;;;8.11;44.05;95611.31;4927700;29;20515;-79
2022/02/24 11:06:27;;;;;;;3.92;3.03;;;;;;;8.35;43.24;95607.41;4911820;29;20043;-79
2022/02/24 11:08:53;;;;;;;3.40;2.83;;;;;;;8.41;42.83;95606.59;4935475;29;20031;-79
2022/02/24 11:11:20;;;;;;;3.38;2.65;;;;;;;8.62;43.11;95600.44;4944686;28;20288;-79
2022/02/24 11:13:46;;;;;;;4.65;3.58;;;;;;;8.76;42.38;95590.84;4942637;29;20509;-79
2022/02/24 11:16:11;;;;;;;3.25;2.60;;;;;;;8.73;42.32;95595.44;4942491;29;20039;-79
2022/02/24 11:18:38;;;;;;;3.25;2.95;;;;;;;8.49;42.63;95595.25;4943273;29;20039;-79
2022/02/24 11:21:05;;;;;;;3.13;2.80;;;;;;;8.49;42.11;95587.50;4929672;29;20038;-79
2022/02/24 11:23:30;;;;;;;4.13;2.55;;;;;;;8.30;43.03;95583.88;5406923;23;20097;-77
2022/02/24 11:26:20;;;;;;;10.63;3.13;;;;;;;8.56;42.26;95567.53;4942387;29;20030;-78
2022/02/24 11:29:06;;;;;;;4.13;3.08;;;;;;;8.77;41.90;95575.09;4940659;28;20031;-79
2022/02/24 11:31:52;;;;;;;4.38;3.13;;;;;;;8.92;41.96;95565.28;4941562;29;20042;-79
2022/02/24 11:34:17;;;;;;;4.28;2.78;;;;;;;9.04;41.29;95565.47;4942702;28;20035;-82
2022/02/24 11:36:46;;;;;;;8.05;3.97;;;;;;;9.15;41.07;95569.25;4933402;29;20154;-81
2022/02/24 11:39:16;;;;;;;4.47;3.20;;;;;;;9.29;40.44;95573.41;4913390;29;20116;-82